Time;durP1;ratioP1;P1;durP2;ratioP2;P2;SDS_P1;SDS_P2;PMS_P1;PMS_P2;Temp;Humidity;BMP_temperature;BMP_pressure;BME280_temperature;BME280_humidity;BME280_pressure;Samples;Min_cycle;Max_cycle;Signal;HPM_P1;HPM_P2
2022/08/23 00:01:19;;;;;;;;;;;17.60;88.50;;;;;;4954124;29;19926;-81
2022/08/23 00:07:15;;;;;;;;;;;17.40;88.70;;;;;;4926804;29;19934;-81
2022/08/23 00:10:25;;;;;;;;;;;17.40;88.60;;;;;;4948036;29;19982;-82
2022/08/23 00:13:04;;;;;;;;;;;17.40;89.00;;;;;;4952574;29;19927;-82
2022/08/23 00:15:57;;;;;;;;;;;17.30;89.00;;;;;;4932864;29;19933;-80
2022/08/23 00:18:43;;;;;;;;;;;17.30;89.00;;;;;;4950556;29;19938;-81
2022/08/23 00:21:23;;;;;;;;;;;17.30;90.10;;;;;;4933077;29;19927;-82
2022/08/23 00:23:58;;;;;;;;;;;17.20;89.70;;;;;;4944641;29;19969;-81
2022/08/23 00:26:56;;;;;;;;;;;17.20;89.70;;;;;;4913820;29;19934;-82
2022/08/23 00:32:20;;;;;;;;;;;17.00;90.00;;;;;;4920354;29;19974;-80
2022/08/23 00:35:07;;;;;;;;;;;17.00;90.10;;;;;;4947253;29;19955;-81
2022/08/23 00:37:46;;;;;;;;;;;17.00;90.10;;;;;;4935226;29;19963;-81
2022/08/23 00:40:18;;;;;;;;;;;16.90;90.30;;;;;;4938279;29;19982;-82
2022/08/23 00:49:11;;;;;;;;;;;16.90;90.20;;;;;;4942280;29;19926;-81
2022/08/23 00:55:07;;;;;;;;;;;16.80;90.30;;;;;;4943579;29;19933;-82
2022/08/23 01:00:51;;;;;;;;;;;16.70;90.30;;;;;;4952493;29;19959;-82
2022/08/23 01:03:29;;;;;;;;;;;16.70;90.40;;;;;;4909968;29;19942;-82
2022/08/23 01:09:02;;;;;;;;;;;16.60;90.50;;;;;;4948884;29;19927;-81
2022/08/23 01:11:51;;;;;;;;;;;16.50;90.50;;;;;;4947658;29;20309;-81
2022/08/23 01:14:31;;;;;;;;;;;16.50;90.70;;;;;;4943881;29;19986;-81
2022/08/23 01:17:07;;;;;;;;;;;16.50;90.80;;;;;;4941647;29;19975;-81
2022/08/23 01:19:51;;;;;;;;;;;16.40;90.70;;;;;;4929713;29;19958;-82
2022/08/23 01:22:23;;;;;;;;;;;16.40;90.70;;;;;;4943025;29;19927;-81
2022/08/23 01:25:10;;;;;;;;;;;16.40;90.90;;;;;;4945969;29;19927;-81
2022/08/23 01:27:50;;;;;;;;;;;16.30;90.70;;;;;;4922997;29;19933;-79
2022/08/23 01:33:13;;;;;;;;;;;16.30;90.80;;;;;;4926856;29;19938;-82
2022/08/23 01:35:56;;;;;;;;;;;16.20;90.70;;;;;;4944646;29;20404;-81
2022/08/23 01:38:35;;;;;;;;;;;16.20;90.80;;;;;;4921550;29;19997;-82
2022/08/23 01:41:12;;;;;;;;;;;16.20;90.90;;;;;;4948541;29;20413;-82
2022/08/23 01:43:49;;;;;;;;;;;16.20;91.00;;;;;;4924927;29;19970;-82
2022/08/23 01:46:24;;;;;;;;;;;16.10;90.90;;;;;;4941407;29;20297;-82
2022/08/23 01:48:58;;;;;;;;;;;16.10;91.00;;;;;;4918884;29;19934;-82
2022/08/23 01:51:34;;;;;;;;;;;16.10;91.10;;;;;;4925209;29;19982;-80
2022/08/23 01:54:09;;;;;;;;;;;16.10;91.20;;;;;;4940691;29;19937;-80
2022/08/23 01:56:47;;;;;;;;;;;16.00;91.10;;;;;;4941085;29;19934;-80
2022/08/23 02:02:09;;;;;;;;;;;16.00;91.40;;;;;;4946468;29;19942;-80
2022/08/23 02:04:44;;;;;;;;;;;15.90;91.40;;;;;;4930164;29;19931;-80
2022/08/23 02:07:16;;;;;;;;;;;;;;;;;;4925270;29;20278;-80
2022/08/23 02:09:45;;;;;;;;;;;15.90;91.30;;;;;;4941994;29;19927;-80
2022/08/23 02:12:20;;;;;;;;;;;15.80;91.50;;;;;;4941473;29;19962;-80
2022/08/23 02:17:42;;;;;;;;;;;15.70;91.60;;;;;;4927779;29;20353;-81
2022/08/23 02:20:18;;;;;;;;;;;15.70;91.60;;;;;;4929910;29;19927;-81
2022/08/23 02:22:45;;;;;;;;;;;15.70;91.80;;;;;;4904885;29;19966;-77
2022/08/23 02:25:12;;;;;;;;;;;15.60;92.00;;;;;;4903889;29;19982;-77
2022/08/23 02:27:41;;;;;;;;;;;15.60;92.10;;;;;;4903584;29;20460;-76
2022/08/23 02:30:08;;;;;;;;;;;15.50;92.30;;;;;;4923959;29;19946;-77
2022/08/23 02:32:35;;;;;;;;;;;15.50;92.40;;;;;;4926600;29;20394;-77
2022/08/23 02:35:02;;;;;;;;;;;15.50;92.50;;;;;;4916460;29;20010;-77
2022/08/23 02:37:29;;;;;;;;;;;15.40;92.50;;;;;;4908065;29;20423;-77
2022/08/23 02:39:56;;;;;;;;;;;15.40;92.70;;;;;;4908894;29;20515;-77
2022/08/23 02:42:23;;;;;;;;;;;15.30;92.80;;;;;;4907386;29;20412;-77
2022/08/23 02:44:51;;;;;;;;;;;15.30;93.10;;;;;;4910095;29;19927;-77
2022/08/23 02:47:18;;;;;;;;;;;15.20;92.90;;;;;;4916590;29;20006;-76
2022/08/23 02:49:57;;;;;;;;;;;15.20;92.80;;;;;;4924080;29;19927;-76
2022/08/23 02:52:24;;;;;;;;;;;15.20;92.90;;;;;;4926644;29;19967;-77
2022/08/23 02:54:51;;;;;;;;;;;15.20;93.10;;;;;;4910462;29;19934;-76
2022/08/23 02:57:17;;;;;;;;;;;15.20;93.10;;;;;;4910894;29;20400;-76
2022/08/23 02:59:44;;;;;;;;;;;15.20;93.00;;;;;;4922158;29;20380;-77
2022/08/23 03:02:13;;;;;;;;;;;15.20;93.00;;;;;;4922563;29;19927;-77
2022/08/23 03:04:42;;;;;;;;;;;15.20;92.90;;;;;;4980123;23;20196;-82
2022/08/23 03:07:08;;;;;;;;;;;15.20;93.00;;;;;;4942904;28;20282;-82
2022/08/23 03:09:36;;;;;;;;;;;15.20;93.00;;;;;;4949033;28;19957;-82
2022/08/23 03:12:04;;;;;;;;;;;15.20;93.10;;;;;;4960802;28;19934;-81
2022/08/23 03:14:36;;;;;;;;;;;15.20;93.10;;;;;;4942150;28;19941;-82
2022/08/23 03:17:04;;;;;;;;;;;15.20;93.10;;;;;;4959006;28;19941;-82
2022/08/23 03:19:35;;;;;;;;;;;15.10;93.00;;;;;;4946608;28;19927;-82
2022/08/23 03:22:02;;;;;;;;;;;15.10;93.00;;;;;;4938398;28;19941;-81
2022/08/23 03:24:29;;;;;;;;;;;15.10;93.10;;;;;;4950583;28;19926;-82
2022/08/23 03:26:58;;;;;;;;;;;15.10;93.20;;;;;;4949212;28;19926;-82
2022/08/23 03:29:26;;;;;;;;;;;15.10;93.50;;;;;;4958996;28;19934;-81
2022/08/23 03:32:02;;;;;;;;;;;15.10;93.20;;;;;;4964880;28;20252;-81
2022/08/23 03:34:34;;;;;;;;;;;15.00;93.30;;;;;;4967031;28;19932;-81
2022/08/23 03:37:01;;;;;;;;;;;15.00;93.30;;;;;;4950896;28;19934;-82
2022/08/23 03:39:28;;;;;;;;;;;15.00;93.40;;;;;;4950546;28;20285;-82
2022/08/23 03:41:58;;;;;;;;;;;15.00;93.40;;;;;;4947194;28;20012;-80
2022/08/23 03:44:27;;;;;;;;;;;15.00;93.50;;;;;;4968184;28;20644;-81
2022/08/23 03:46:54;;;;;;;;;;;14.90;93.40;;;;;;4962300;28;19933;-82
2022/08/23 03:49:21;;;;;;;;;;;14.90;93.40;;;;;;4964189;28;19985;-82
2022/08/23 03:51:54;;;;;;;;;;;14.90;93.40;;;;;;4951172;28;19934;-81
2022/08/23 03:54:24;;;;;;;;;;;14.90;93.50;;;;;;4965490;28;19933;-81
2022/08/23 03:56:55;;;;;;;;;;;14.90;93.50;;;;;;4963068;28;19933;-82
2022/08/23 03:59:22;;;;;;;;;;;14.90;93.50;;;;;;4946823;28;20415;-82
2022/08/23 04:01:49;;;;;;;;;;;14.80;93.40;;;;;;4963600;28;20028;-80
2022/08/23 04:04:16;;;;;;;;;;;14.80;93.50;;;;;;4966084;28;19926;-81
2022/08/23 04:07:03;;;;;;;;;;;14.80;93.50;;;;;;4948141;28;19930;-82
2022/08/23 04:09:31;;;;;;;;;;;14.80;93.50;;;;;;4969940;28;20403;-81
2022/08/23 04:12:00;;;;;;;;;;;14.80;93.60;;;;;;4943730;28;20105;-81
2022/08/23 04:14:27;;;;;;;;;;;14.80;93.60;;;;;;4952694;28;20008;-81
2022/08/23 04:16:54;;;;;;;;;;;14.70;93.60;;;;;;4970483;28;19934;-82
2022/08/23 04:19:21;;;;;;;;;;;14.70;93.70;;;;;;4945967;28;20408;-80
2022/08/23 04:21:59;;;;;;;;;;;14.60;93.60;;;;;;4943627;28;19969;-81
2022/08/23 04:24:32;;;;;;;;;;;14.70;93.70;;;;;;4951182;28;20013;-82
2022/08/23 04:26:59;;;;;;;;;;;14.60;93.80;;;;;;4959195;28;19933;-82
2022/08/23 04:29:26;;;;;;;;;;;14.60;93.80;;;;;;4945572;28;19926;-80
2022/08/23 04:31:53;;;;;;;;;;;14.60;93.90;;;;;;4948056;28;20017;-80
2022/08/23 04:34:20;;;;;;;;;;;14.60;93.80;;;;;;4965660;28;20026;-81
2022/08/23 04:36:49;;;;;;;;;;;14.60;93.80;;;;;;4944280;28;19927;-81
2022/08/23 04:39:18;;;;;;;;;;;14.60;93.90;;;;;;4966038;28;19968;-81
2022/08/23 04:44:44;;;;;;;;;;;14.50;94.00;;;;;;4890932;29;19935;-81
2022/08/23 04:47:11;;;;;;;;;;;14.50;94.00;;;;;;4930474;28;19926;-81
2022/08/23 04:49:38;;;;;;;;;;;14.50;94.00;;;;;;4948096;28;19927;-81
2022/08/23 04:52:04;;;;;;;;;;;14.50;94.00;;;;;;4950446;28;19930;-81
2022/08/23 04:54:32;;;;;;;;;;;14.40;94.00;;;;;;4940724;28;19989;-81
2022/08/23 04:57:34;;;;;;;;;;;14.40;94.10;;;;;;4942513;28;20416;-80
2022/08/23 05:00:02;;;;;;;;;;;14.40;94.10;;;;;;4959261;28;19926;-81
2022/08/23 05:02:30;;;;;;;;;;;14.50;94.20;;;;;;4957196;28;19932;-81
2022/08/23 05:04:57;;;;;;;;;;;14.30;94.20;;;;;;4955156;28;19930;-82
2022/08/23 05:07:23;;;;;;;;;;;14.30;94.50;;;;;;4953134;28;19937;-80
2022/08/23 05:09:50;;;;;;;;;;;14.20;94.70;;;;;;4950578;28;20353;-80
2022/08/23 05:12:17;;;;;;;;;;;14.20;94.80;;;;;;4955536;28;19937;-81
2022/08/23 05:14:46;;;;;;;;;;;14.20;95.10;;;;;;4953243;28;19930;-81
2022/08/23 05:17:13;;;;;;;;;;;14.20;94.90;;;;;;4951503;28;20316;-82
2022/08/23 05:19:40;;;;;;;;;;;14.10;94.80;;;;;;4946562;28;19953;-81
2022/08/23 05:22:07;;;;;;;;;;;14.20;94.90;;;;;;4947216;28;19934;-80
2022/08/23 05:25:12;;;;;;;;;;;14.20;94.90;;;;;;4906914;29;19931;-80
2022/08/23 05:27:39;;;;;;;;;;;14.20;95.00;;;;;;4886139;29;20420;-80
2022/08/23 05:30:10;;;;;;;;;;;14.20;95.00;;;;;;4905736;28;20020;-80
2022/08/23 05:32:37;;;;;;;;;;;14.20;95.10;;;;;;4951472;28;19926;-79
2022/08/23 05:35:05;;;;;;;;;;;14.10;95.00;;;;;;4953978;28;19930;-80
2022/08/23 05:37:36;;;;;;;;;;;14.10;95.10;;;;;;4943281;28;20028;-81
2022/08/23 05:40:03;;;;;;;;;;;14.10;95.10;;;;;;4943587;28;19970;-80
2022/08/23 05:42:35;;;;;;;;;;;14.10;95.20;;;;;;4939642;28;19934;-81
2022/08/23 05:45:02;;;;;;;;;;;14.20;95.20;;;;;;4949094;28;19933;-80
2022/08/23 05:47:32;;;;;;;;;;;14.20;95.30;;;;;;4952432;28;19926;-81
2022/08/23 05:50:16;;;;;;;;;;;14.20;95.40;;;;;;4954919;28;20007;-80
2022/08/23 05:52:45;;;;;;;;;;;14.20;95.50;;;;;;4936425;28;20411;-81
2022/08/23 05:55:12;;;;;;;;;;;14.20;95.70;;;;;;4928338;28;19926;-80
2022/08/23 05:57:55;;;;;;;;;;;14.20;95.90;;;;;;4941935;28;19941;-81
2022/08/23 06:00:22;;;;;;;;;;;14.20;95.90;;;;;;4948526;28;19934;-79
2022/08/23 06:02:56;;;;;;;;;;;14.20;96.00;;;;;;4944319;28;20026;-81
2022/08/23 06:05:23;;;;;;;;;;;14.20;96.20;;;;;;4931934;28;20435;-79
2022/08/23 06:07:51;;;;;;;;;;;14.20;96.30;;;;;;4934398;28;19930;-81
2022/08/23 06:10:20;;;;;;;;;;;14.20;96.20;;;;;;4952109;28;20856;-79
2022/08/23 06:12:54;;;;;;;;;;;14.20;96.30;;;;;;4950398;28;19934;-80
2022/08/23 06:15:21;;;;;;;;;;;14.20;96.20;;;;;;4958085;28;19969;-80
2022/08/23 06:17:48;;;;;;;;;;;14.30;96.30;;;;;;4941924;28;20294;-80
2022/08/23 06:20:17;;;;;;;;;;;14.30;96.20;;;;;;4953547;28;19932;-80
2022/08/23 06:23:05;;;;;;;;;;;14.40;96.30;;;;;;4955262;28;20301;-80
2022/08/23 06:25:35;;;;;;;;;;;14.40;96.30;;;;;;4945140;28;19934;-79
2022/08/23 06:28:14;;;;;;;;;;;14.30;96.30;;;;;;4956181;28;20424;-80
2022/08/23 06:30:41;;;;;;;;;;;14.40;96.40;;;;;;4935309;28;19933;-80
2022/08/23 06:33:26;;;;;;;;;;;14.40;96.40;;;;;;4960417;28;19937;-81
2022/08/23 06:36:13;;;;;;;;;;;14.40;96.40;;;;;;4955156;28;20081;-80
2022/08/23 06:39:03;;;;;;;;;;;14.40;96.50;;;;;;4947558;28;20329;-80
2022/08/23 06:41:59;;;;;;;;;;;14.40;96.50;;;;;;4946734;28;19926;-81
2022/08/23 06:44:29;;;;;;;;;;;14.50;96.80;;;;;;4943868;28;20414;-80
2022/08/23 06:47:17;;;;;;;;;;;14.50;96.60;;;;;;4942892;28;19927;-81
2022/08/23 06:49:44;;;;;;;;;;;14.50;96.70;;;;;;4959793;28;19940;-80
2022/08/23 06:52:13;;;;;;;;;;;14.50;96.50;;;;;;4956387;28;20025;-80
2022/08/23 06:54:51;;;;;;;;;;;14.60;96.50;;;;;;4944475;28;20195;-80
2022/08/23 06:57:38;;;;;;;;;;;14.60;96.50;;;;;;4957023;28;19936;-81
2022/08/23 07:00:24;;;;;;;;;;;14.60;96.30;;;;;;4962018;28;20004;-81
2022/08/23 07:03:10;;;;;;;;;;;14.60;96.20;;;;;;4942429;28;19926;-80
2022/08/23 07:06:15;;;;;;;;;;;14.70;96.40;;;;;;4961096;28;20021;-81
2022/08/23 07:08:44;;;;;;;;;;;14.80;96.80;;;;;;4965327;28;19956;-80
2022/08/23 07:11:11;;;;;;;;;;;14.80;96.60;;;;;;4948529;28;20005;-81
2022/08/23 07:13:39;;;;;;;;;;;14.90;96.70;;;;;;4949719;28;19973;-80
2022/08/23 07:16:08;;;;;;;;;;;14.90;96.60;;;;;;4943533;28;19930;-81
2022/08/23 07:18:36;;;;;;;;;;;14.90;96.80;;;;;;4948500;28;19926;-82
2022/08/23 07:21:04;;;;;;;;;;;15.00;96.80;;;;;;4950101;28;21706;-79
2022/08/23 07:23:32;;;;;;;;;;;15.00;96.60;;;;;;4958494;28;20013;-82
2022/08/23 07:26:06;;;;;;;;;;;15.00;96.80;;;;;;4938494;28;19942;-79
2022/08/23 07:28:34;;;;;;;;;;;15.00;96.50;;;;;;4933489;28;19935;-80
2022/08/23 07:31:06;;;;;;;;;;;15.10;96.90;;;;;;4938367;28;19926;-79
2022/08/23 07:33:33;;;;;;;;;;;15.10;96.80;;;;;;4955462;28;19930;-79
2022/08/23 07:36:12;;;;;;;;;;;15.20;97.00;;;;;;4944207;28;19958;-82
2022/08/23 07:38:39;;;;;;;;;;;15.20;96.80;;;;;;4956164;28;20369;-79
2022/08/23 07:41:08;;;;;;;;;;;15.20;97.10;;;;;;4936524;28;20488;-81
2022/08/23 07:43:36;;;;;;;;;;;15.30;97.10;;;;;;4944168;28;19934;-80
2022/08/23 07:46:03;;;;;;;;;;;15.30;97.10;;;;;;4947683;28;20076;-79
2022/08/23 07:48:32;;;;;;;;;;;15.40;97.00;;;;;;4957327;28;19977;-79
2022/08/23 07:51:19;;;;;;;;;;;15.50;97.10;;;;;;4957054;28;19926;-79
2022/08/23 07:53:46;;;;;;;;;;;15.50;97.00;;;;;;4956555;28;20032;-79
2022/08/23 07:56:18;;;;;;;;;;;15.60;97.10;;;;;;4937664;28;21122;-80
2022/08/23 07:59:06;;;;;;;;;;;15.60;96.90;;;;;;4961346;28;20483;-80
2022/08/23 08:01:38;;;;;;;;;;;15.70;97.00;;;;;;4957695;28;20016;-80
2022/08/23 08:04:05;;;;;;;;;;;15.70;97.10;;;;;;4955923;28;19930;-79
2022/08/23 08:06:39;;;;;;;;;;;15.80;96.80;;;;;;4941168;28;19997;-80
2022/08/23 08:09:07;;;;;;;;;;;15.80;96.70;;;;;;4942987;28;19935;-79
2022/08/23 08:11:36;;;;;;;;;;;15.90;96.60;;;;;;4936467;28;20273;-78
2022/08/23 08:14:05;;;;;;;;;;;15.90;96.40;;;;;;4955455;28;19936;-78
2022/08/23 08:16:33;;;;;;;;;;;16.10;96.40;;;;;;4946872;28;19936;-78
2022/08/23 08:19:03;;;;;;;;;;;16.20;96.30;;;;;;4943138;28;20017;-78
2022/08/23 08:21:49;;;;;;;;;;;16.40;96.10;;;;;;4951270;28;19945;-78
2022/08/23 08:24:27;;;;;;;;;;;16.50;95.70;;;;;;4943761;28;20021;-81
2022/08/23 08:27:03;;;;;;;;;;;16.60;95.80;;;;;;4947734;28;20046;-80
2022/08/23 08:29:30;;;;;;;;;;;16.60;95.50;;;;;;4955424;28;20115;-80
2022/08/23 08:31:57;;;;;;;;;;;16.60;95.40;;;;;;4952002;28;19927;-78
2022/08/23 08:34:25;;;;;;;;;;;16.60;95.20;;;;;;4941005;28;19927;-83
2022/08/23 08:36:53;;;;;;;;;;;16.60;95.60;;;;;;4943467;28;19937;-81
2022/08/23 08:39:22;;;;;;;;;;;16.70;95.90;;;;;;4948546;28;19961;-81
2022/08/23 08:41:57;;;;;;;;;;;16.70;96.30;;;;;;4943450;28;19998;-82
2022/08/23 08:44:32;;;;;;;;;;;16.80;96.40;;;;;;4956003;28;20005;-80
2022/08/23 08:47:00;;;;;;;;;;;16.80;96.30;;;;;;4936541;28;19945;-79
2022/08/23 08:49:32;;;;;;;;;;;16.90;96.50;;;;;;4953579;28;19937;-78
2022/08/23 08:52:01;;;;;;;;;;;17.00;96.40;;;;;;4948608;28;19933;-78
2022/08/23 08:54:29;;;;;;;;;;;17.10;96.20;;;;;;4943262;28;19981;-79
2022/08/23 08:56:58;;;;;;;;;;;17.20;96.10;;;;;;4931601;28;20407;-78
2022/08/23 08:59:28;;;;;;;;;;;17.20;96.10;;;;;;4945838;28;19945;-79
2022/08/23 09:01:57;;;;;;;;;;;17.30;95.80;;;;;;4952716;28;19935;-78
2022/08/23 09:04:37;;;;;;;;;;;17.40;96.00;;;;;;4941123;28;20925;-77
2022/08/23 09:07:10;;;;;;;;;;;17.40;95.60;;;;;;4950018;28;20314;-78
2022/08/23 09:09:53;;;;;;;;;;;17.50;95.50;;;;;;4954045;28;19930;-78
2022/08/23 09:12:26;;;;;;;;;;;17.60;95.50;;;;;;4940936;28;19961;-79
2022/08/23 09:14:59;;;;;;;;;;;17.60;95.20;;;;;;4952151;28;20065;-78
2022/08/23 09:17:32;;;;;;;;;;;17.70;95.40;;;;;;4951843;28;19942;-79
2022/08/23 09:20:02;;;;;;;;;;;17.80;95.30;;;;;;4942955;28;20574;-79
2022/08/23 09:22:32;;;;;;;;;;;18.00;93.80;;;;;;4927735;28;19942;-80
2022/08/23 09:25:00;;;;;;;;;;;18.00;93.80;;;;;;4930539;28;20431;-79
2022/08/23 09:27:34;;;;;;;;;;;18.20;93.60;;;;;;4939319;28;19930;-81
2022/08/23 09:30:02;;;;;;;;;;;18.30;93.40;;;;;;4950291;28;20020;-80
2022/08/23 09:32:32;;;;;;;;;;;18.40;93.10;;;;;;4934758;28;19933;-80
2022/08/23 09:35:08;;;;;;;;;;;18.60;93.10;;;;;;4934552;28;19929;-79
2022/08/23 09:37:46;;;;;;;;;;;18.60;93.40;;;;;;4938405;28;19930;-78
2022/08/23 09:40:16;;;;;;;;;;;18.80;93.00;;;;;;4949325;28;19930;-84
2022/08/23 09:42:46;;;;;;;;;;;18.80;93.30;;;;;;4939686;28;19973;-79
2022/08/23 09:45:25;;;;;;;;;;;18.90;92.50;;;;;;4937130;28;19934;-80
2022/08/23 09:47:54;;;;;;;;;;;19.10;92.60;;;;;;4925775;28;19934;-78
2022/08/23 09:50:25;;;;;;;;;;;19.20;93.30;;;;;;4925536;28;20401;-81
2022/08/23 09:52:55;;;;;;;;;;;19.20;92.70;;;;;;4939572;28;19938;-78
2022/08/23 09:55:27;;;;;;;;;;;19.30;92.00;;;;;;4936168;28;19949;-83
2022/08/23 09:57:54;;;;;;;;;;;19.30;91.40;;;;;;4939629;28;19948;-81
2022/08/23 10:00:24;;;;;;;;;;;19.40;92.40;;;;;;4919641;28;19930;-80
2022/08/23 10:02:56;;;;;;;;;;;19.60;92.00;;;;;;4942239;28;19941;-79
2022/08/23 10:05:31;;;;;;;;;;;19.50;92.10;;;;;;4936389;28;19941;-80
2022/08/23 10:07:59;;;;;;;;;;;19.50;92.10;;;;;;4962209;28;19965;-81
2022/08/23 10:10:30;;;;;;;;;;;19.40;92.70;;;;;;4946168;28;19962;-81
2022/08/23 10:13:01;;;;;;;;;;;19.50;92.10;;;;;;4944826;28;19926;-81
2022/08/23 10:15:35;;;;;;;;;;;19.70;91.50;;;;;;4947743;28;19931;-80
2022/08/23 10:18:07;;;;;;;;;;;19.70;90.60;;;;;;4942018;28;19950;-81
2022/08/23 10:20:41;;;;;;;;;;;19.70;89.70;;;;;;4943889;28;19930;-80
2022/08/23 10:23:15;;;;;;;;;;;19.60;90.40;;;;;;4946783;28;19934;-80
2022/08/23 10:25:52;;;;;;;;;;;19.70;90.50;;;;;;4948969;28;20482;-80
2022/08/23 10:31:14;;;;;;;;;;;20.00;90.00;;;;;;4947642;28;19955;-80
2022/08/23 10:33:46;;;;;;;;;;;20.10;90.40;;;;;;4965970;28;20412;-80
2022/08/23 10:36:15;;;;;;;;;;;20.20;88.10;;;;;;4933080;28;19926;-80
2022/08/23 10:38:45;;;;;;;;;;;20.30;87.90;;;;;;4963138;28;20127;-80
2022/08/23 10:41:17;;;;;;;;;;;20.40;86.20;;;;;;4947914;28;19981;-80
2022/08/23 10:43:49;;;;;;;;;;;20.40;88.20;;;;;;4964433;28;19930;-80
2022/08/23 10:46:17;;;;;;;;;;;20.40;87.20;;;;;;4949754;28;19993;-80
2022/08/23 10:48:50;;;;;;;;;;;20.50;86.40;;;;;;4947859;28;19946;-80
2022/08/23 10:51:19;;;;;;;;;;;20.40;84.40;;;;;;4963373;28;19934;-81
2022/08/23 10:53:48;;;;;;;;;;;20.50;87.80;;;;;;4945380;28;20397;-80
2022/08/23 10:56:18;;;;;;;;;;;20.60;87.70;;;;;;4953198;28;19973;-80
2022/08/23 10:58:52;;;;;;;;;;;20.80;88.30;;;;;;4949937;28;19949;-80
2022/08/23 11:01:21;;;;;;;;;;;20.80;86.60;;;;;;4966138;28;19978;-81
2022/08/23 11:03:56;;;;;;;;;;;20.80;84.90;;;;;;4949676;28;19933;-80
2022/08/23 11:06:30;;;;;;;;;;;20.70;84.30;;;;;;4973000;28;19930;-81
2022/08/23 11:08:58;;;;;;;;;;;20.60;84.20;;;;;;4965860;28;19965;-80
2022/08/23 11:11:42;;;;;;;;;;;20.70;84.60;;;;;;4942302;28;19972;-81
2022/08/23 11:14:11;;;;;;;;;;;20.60;84.00;;;;;;4952318;28;19933;-83
2022/08/23 11:16:40;;;;;;;;;;;20.60;82.90;;;;;;4956162;28;19941;-80
2022/08/23 11:19:12;;;;;;;;;;;20.80;84.80;;;;;;4939414;28;19972;-80
2022/08/23 11:21:43;;;;;;;;;;;20.90;85.00;;;;;;4947777;28;19934;-81
2022/08/23 11:24:49;;;;;;;;;;;21.20;86.50;;;;;;4960940;28;20298;-82
2022/08/23 11:27:25;;;;;;;;;;;21.30;86.90;;;;;;4948186;28;20335;-81
2022/08/23 11:29:52;;;;;;;;;;;21.50;84.70;;;;;;4956445;28;20345;-79
2022/08/23 11:32:36;;;;;;;;;;;21.40;84.50;;;;;;4952301;28;19933;-81
2022/08/23 11:35:26;;;;;;;;;;;21.60;84.10;;;;;;4944943;28;20030;-81
2022/08/23 11:37:55;;;;;;;;;;;21.70;85.10;;;;;;4957154;28;19934;-80
2022/08/23 11:40:38;;;;;;;;;;;21.90;84.10;;;;;;4963603;28;19930;-81
2022/08/23 11:43:07;;;;;;;;;;;21.90;83.70;;;;;;4951756;28;19931;-81
2022/08/23 11:45:41;;;;;;;;;;;22.00;81.90;;;;;;4951731;28;20033;-80
2022/08/23 11:48:12;;;;;;;;;;;21.90;81.10;;;;;;4944672;28;19934;-81
2022/08/23 11:50:45;;;;;;;;;;;21.60;80.10;;;;;;4959791;28;19962;-81
2022/08/23 11:53:24;;;;;;;;;;;21.50;81.00;;;;;;4946859;28;19961;-79
2022/08/23 11:56:07;;;;;;;;;;;21.60;81.00;;;;;;4961337;28;19989;-79
2022/08/23 11:58:49;;;;;;;;;;;21.90;82.40;;;;;;4963922;28;20401;-79
2022/08/23 12:01:17;;;;;;;;;;;22.00;81.80;;;;;;4947020;28;19934;-79
2022/08/23 12:03:54;;;;;;;;;;;22.20;82.90;;;;;;4940348;28;19934;-78
2022/08/23 12:06:40;;;;;;;;;;;22.30;83.20;;;;;;4945286;28;20017;-78
2022/08/23 12:09:11;;;;;;;;;;;22.50;83.40;;;;;;4966167;28;19998;-79
2022/08/23 12:11:56;;;;;;;;;;;22.70;83.20;;;;;;4944663;28;19926;-80
2022/08/23 12:14:35;;;;;;;;;;;22.80;81.40;;;;;;4954333;28;19959;-81
2022/08/23 12:17:04;;;;;;;;;;;22.90;81.20;;;;;;4966454;28;20282;-81
2022/08/23 12:19:33;;;;;;;;;;;22.90;80.00;;;;;;4967536;28;19930;-81
2022/08/23 12:22:07;;;;;;;;;;;23.00;77.80;;;;;;4961546;28;19957;-82
2022/08/23 12:24:43;;;;;;;;;;;22.80;76.40;;;;;;4946481;28;19930;-81
2022/08/23 12:27:16;;;;;;;;;;;22.80;76.00;;;;;;4938209;28;19945;-81
2022/08/23 12:29:48;;;;;;;;;;;22.60;78.20;;;;;;4953919;28;19966;-79
2022/08/23 12:32:19;;;;;;;;;;;22.40;79.40;;;;;;4957254;28;20048;-79
2022/08/23 12:34:52;;;;;;;;;;;22.20;80.40;;;;;;4949074;28;20018;-82
2022/08/23 12:37:28;;;;;;;;;;;22.10;80.90;;;;;;4958320;28;19945;-79
2022/08/23 12:39:57;;;;;;;;;;;22.00;81.60;;;;;;4946804;28;19930;-81
2022/08/23 12:42:26;;;;;;;;;;;22.00;83.50;;;;;;4957775;28;20346;-80
2022/08/23 12:44:59;;;;;;;;;;;22.60;82.70;;;;;;4954388;28;19945;-83
2022/08/23 12:47:26;;;;;;;;;;;22.90;82.20;;;;;;4954561;28;19934;-80
2022/08/23 12:49:54;;;;;;;;;;;23.30;81.50;;;;;;4953089;28;19935;-81
2022/08/23 12:52:26;;;;;;;;;;;23.50;80.50;;;;;;4955691;28;20001;-84
2022/08/23 12:54:56;;;;;;;;;;;23.70;80.50;;;;;;4956404;28;20028;-82
2022/08/23 12:57:30;;;;;;;;;;;23.60;76.90;;;;;;4961863;28;19926;-81
2022/08/23 13:00:00;;;;;;;;;;;23.80;79.00;;;;;;4960554;28;20032;-85
2022/08/23 13:02:33;;;;;;;;;;;24.00;78.20;;;;;;4955933;28;19942;-79
2022/08/23 13:05:03;;;;;;;;;;;24.10;77.40;;;;;;4957048;28;19937;-81
2022/08/23 13:07:32;;;;;;;;;;;24.20;78.10;;;;;;4961510;28;19930;-84
2022/08/23 13:09:59;;;;;;;;;;;;;;;;;;4965313;28;19973;-84
2022/08/23 13:12:26;;;;;;;;;;;24.50;78.50;;;;;;4961843;28;20389;-81
2022/08/23 13:15:00;;;;;;;;;;;24.60;78.50;;;;;;4962712;28;20017;-81
2022/08/23 13:17:31;;;;;;;;;;;24.70;78.40;;;;;;4944783;28;19930;-79
2022/08/23 13:20:12;;;;;;;;;;;24.70;77.70;;;;;;4961036;28;20389;-85
2022/08/23 13:22:55;;;;;;;;;;;24.80;76.40;;;;;;4965594;28;19952;-79
2022/08/23 13:25:26;;;;;;;;;;;24.90;76.70;;;;;;4948450;28;19926;-84
2022/08/23 13:27:58;;;;;;;;;;;25.00;76.50;;;;;;4957499;28;20128;-84
2022/08/23 13:30:25;;;;;;;;;;;25.00;77.20;;;;;;4958378;28;20468;-78
2022/08/23 13:32:53;;;;;;;;;;;25.10;76.40;;;;;;4956935;28;20024;-79
2022/08/23 13:35:30;;;;;;;;;;;25.20;76.80;;;;;;4962521;28;19926;-79
2022/08/23 13:38:00;;;;;;;;;;;25.10;75.70;;;;;;4963519;28;19934;-81
2022/08/23 13:40:27;;;;;;;;;;;;;;;;;;4944807;28;20602;-78
2022/08/23 13:42:57;;;;;;;;;;;25.20;74.90;;;;;;4958094;28;20068;-83
2022/08/23 13:45:26;;;;;;;;;;;25.30;73.50;;;;;;4953176;28;21217;-80
2022/08/23 13:47:55;;;;;;;;;;;25.30;75.60;;;;;;4944411;28;20227;-81
2022/08/23 13:50:23;;;;;;;;;;;25.40;73.80;;;;;;4961653;28;19973;-80
2022/08/23 13:52:50;;;;;;;;;;;25.30;74.20;;;;;;4955303;28;20564;-83
2022/08/23 13:55:21;;;;;;;;;;;25.30;73.60;;;;;;4946345;28;20224;-81
2022/08/23 13:57:48;;;;;;;;;;;25.40;74.40;;;;;;4936749;28;20192;-80
2022/08/23 14:00:15;;;;;;;;;;;25.50;73.90;;;;;;4957328;28;19976;-80
2022/08/23 14:02:43;;;;;;;;;;;25.50;74.00;;;;;;4956669;28;19976;-82
2022/08/23 14:05:10;;;;;;;;;;;25.50;73.50;;;;;;4943385;28;19945;-81
2022/08/23 14:07:37;;;;;;;;;;;25.60;73.60;;;;;;4961066;28;19930;-86
2022/08/23 14:10:04;;;;;;;;;;;25.70;74.60;;;;;;4958681;28;20259;-82
2022/08/23 14:12:33;;;;;;;;;;;25.80;75.40;;;;;;4963129;28;19934;-87
2022/08/23 14:15:01;;;;;;;;;;;25.90;75.10;;;;;;4959014;28;19934;-84
2022/08/23 14:17:29;;;;;;;;;;;25.90;74.20;;;;;;4944221;28;19934;-83
2022/08/23 14:19:56;;;;;;;;;;;26.00;75.10;;;;;;4949077;28;20017;-83
2022/08/23 14:22:23;;;;;;;;;;;26.00;74.90;;;;;;4959991;28;20013;-79
2022/08/23 14:24:49;;;;;;;;;;;26.00;74.40;;;;;;4942278;28;20048;-79
2022/08/23 14:27:16;;;;;;;;;;;26.00;74.20;;;;;;4941018;28;19950;-80
2022/08/23 14:29:44;;;;;;;;;;;25.90;73.40;;;;;;4944584;28;20314;-78
2022/08/23 14:32:11;;;;;;;;;;;25.90;72.50;;;;;;4955376;28;20413;-79
2022/08/23 14:34:38;;;;;;;;;;;25.90;72.50;;;;;;4954643;28;21862;-78
2022/08/23 14:37:06;;;;;;;;;;;26.00;73.00;;;;;;4960492;28;19926;-83
2022/08/23 14:39:32;;;;;;;;;;;26.00;72.90;;;;;;4958558;28;20444;-81
2022/08/23 14:41:59;;;;;;;;;;;26.10;73.20;;;;;;4955641;28;19927;-78
2022/08/23 14:44:26;;;;;;;;;;;26.10;73.80;;;;;;4947149;28;19938;-79
2022/08/23 14:46:55;;;;;;;;;;;26.10;73.80;;;;;;4943723;28;19932;-79
2022/08/23 14:49:22;;;;;;;;;;;26.10;74.60;;;;;;4961753;28;19927;-79
2022/08/23 14:51:50;;;;;;;;;;;26.10;73.50;;;;;;4963059;28;19934;-78
2022/08/23 14:54:19;;;;;;;;;;;26.00;72.70;;;;;;4948368;28;19973;-79
2022/08/23 14:56:46;;;;;;;;;;;26.00;71.30;;;;;;4952161;28;19934;-79
2022/08/23 14:59:13;;;;;;;;;;;25.90;70.80;;;;;;4965389;28;19998;-79
2022/08/23 15:01:40;;;;;;;;;;;26.00;71.60;;;;;;4944372;28;19934;-77
2022/08/23 15:04:46;;;;;;;;;;;25.90;69.90;;;;;;4963492;28;20309;-79
2022/08/23 15:07:17;;;;;;;;;;;25.80;68.90;;;;;;4961130;28;19953;-80
2022/08/23 15:09:44;;;;;;;;;;;25.60;69.00;;;;;;4949848;28;19977;-80
2022/08/23 15:12:11;;;;;;;;;;;25.60;68.80;;;;;;4958479;28;19934;-80
2022/08/23 15:14:38;;;;;;;;;;;25.60;68.90;;;;;;4939693;28;19937;-79
2022/08/23 15:17:06;;;;;;;;;;;25.60;68.80;;;;;;4961051;28;19934;-80
2022/08/23 15:19:33;;;;;;;;;;;25.70;71.60;;;;;;4945577;28;19933;-79
2022/08/23 15:22:00;;;;;;;;;;;25.80;72.30;;;;;;4962008;28;20025;-79
2022/08/23 15:24:29;;;;;;;;;;;25.80;72.20;;;;;;4949363;28;19940;-80